Nearby METAR Reports

 

KPAE - Everett, Washington, USA
Distance from station: NW 15mi, 25km
Updated: 01/17/2021 9:53am
Partly cloudy
Partly cloudy
 Wind from SSE
Wind: SSE 3 mph , 6 km/h
Temperature: 45°F , 7°C
Dew Point: 43°F , 6°C
Humidity: 93%
Barometer: 30.44 inHg , 1030.8 hPa
Clouds: Partly cloudy
Visibility: 10 miles , 16 km
Cloud details: Partly cloudy 200 ft
2021/01/17 17:53 KPAE 171753Z 16003KT 10SM SCT002 07/06 A3044 RMK AO2 SLP312 T00720061 10072 20056 53020
KBFI - Seattle/Boeing, Washington, USA
Distance from station: SW 20mi, 31km
Updated: 01/17/2021 9:53am
Overcast
Overcast
 Wind from S
Wind: S 3 mph , 6 km/h
Temperature: 46°F , 8°C
Dew Point: 45°F , 7°C
Humidity: 93%
Barometer: 30.45 inHg , 1031.2 hPa
Clouds: Overcast
Visibility: 10 miles , 16 km
Cloud details: Partly cloudy 600 ft
Mostly cloudy 1200 ft
Overcast 1800 ft
2021/01/17 17:53 KBFI 171753Z 18003KT 10SM SCT006 BKN012 OVC018 08/07 A3045 RMK AO2 SLP311 T00780067 10078 20067 53018
KSEA - Seattle/Metro, Washington, USA
Distance from station: SSW 25mi, 41km
Updated: 01/17/2021 9:53am
Overcast
Overcast
 Wind from SSE
Wind: SSE 5 mph , 7 km/h
Temperature: 46°F , 8°C
Wind Chill: 44°F , 7°C
Dew Point: 45°F , 7°C
Humidity: 93%
Barometer: 30.44 inHg , 1030.8 hPa
Clouds: Overcast
Visibility: 10 miles , 16 km
Cloud details: Partly cloudy 400 ft
Overcast 1200 ft
2021/01/17 17:53 KSEA 171753Z 16004KT 10SM SCT004 OVC012 08/07 A3044 RMK AO2 SLP318 60001 T00780072 10078 20067 53019
 
KAWO - Arlington Muni, Washington, USA
Distance from station: NNW 28mi, 46km
Updated: 01/17/2021 9:56am
Overcast
Overcast
 Wind from calm
Wind: Calm
Temperature: 45°F , 7°C
Dew Point: 43°F , 6°C
Humidity: 93%
Barometer: 30.46 inHg , 1031.5 hPa
Clouds: Overcast
Visibility: 10 miles , 16 km
Cloud details: Overcast 1000 ft
2021/01/17 17:56 KAWO 171756Z AUTO 00000KT 10SM OVC010 07/06 A3046 RMK AO2 SLP319 60000 T00720061 10072 20061 53021
KPWT - Bremerton Ntnl, Washington, USA
Distance from station: WSW 38mi, 61km
Updated: 01/17/2021 10:07am
Overcast
Overcast
 Wind from calm
Wind: Calm
Temperature: 45°F , 7°C
Dew Point: 45°F , 7°C
Humidity: 100%
Barometer: 30.46 inHg , 1031.5 hPa
Clouds: Overcast
Visibility: 10 miles , 16 km
Cloud details: Partly cloudy 500 ft
Overcast 1000 ft
2021/01/17 18:07 KPWT 171807Z AUTO 00000KT 10SM SCT005 OVC010 07/07 A3046 RMK AO2 $
KTIW - Tacoma, Washington, USA
Distance from station: SW 43mi, 69km
Updated: 01/17/2021 9:53am
Overcast
Overcast
 Wind from SSE
Wind: SSE 6 mph , 9 km/h
Temperature: 45°F , 7°C
Wind Chill: 42°F , 6°C
Dew Point: 43°F , 6°C
Humidity: 93%
Barometer: 30.45 inHg , 1031.2 hPa
Clouds: Overcast
Visibility: 10 miles , 16 km
Cloud details: Mostly cloudy 400 ft
Overcast 1000 ft
2021/01/17 17:53 KTIW 171753Z 16005KT 10SM BKN004 OVC010 07/06 A3045 RMK AO2 SLP313 60000 T00670056 10067 20061 53021
 
KPLU - Puyallup/Thun, Washington, USA
Distance from station: SSW 47mi, 76km
Updated: 01/17/2021 9:55am
Mist, Overcast
Mist, Overcast
 Wind from calm
Wind: Calm
Temperature: 46°F , 8°C
Dew Point: 46°F , 8°C
Humidity: 100%
Barometer: 30.45 inHg , 1031.2 hPa
Summary: Mist
Clouds: Overcast
Visibility: 5 miles , 8 km
Cloud details: Overcast 800 ft
2021/01/17 17:55 KPLU 171755Z AUTO 00000KT 5SM BR OVC008 08/08 A3045 RMK AO2
KSMP - Stampede Pass, Washington, USA
Distance from station: SE 47mi, 76km
Updated: 01/17/2021 10:02am
Mist, Overcast
Mist, Overcast
 Wind from varies
Wind: varies 7 mph , 11 km/h
Temperature: 36°F , 2°C
Wind Chill: 30°F , -1°C
Dew Point: 34°F , 1°C
Humidity: 93%
Barometer: 30.33 inHg , 1027.1 hPa
Summary: Mist
Clouds: Overcast
Visibility: 1 1/4 miles , 2 km
Cloud details: Overcast 400 ft
2021/01/17 18:02 KSMP 171802Z AUTO VRB06KT 1 1/4SM UP BR OVC004 02/01 A3033 RMK AO2 VIS 3/4V3 P0000 T00220011
KNUW - Whidbey Is. Nas, Washington, USA
Distance from station: NW 49mi, 79km
Updated: 01/17/2021 9:56am
Mostly cloudy
Mostly cloudy
 Wind from calm
Wind: Calm
Temperature: 48°F , 9°C
Dew Point: 43°F , 6°C
Humidity: 82%
Barometer: 30.48 inHg , 1032.2 hPa
Clouds: Mostly cloudy
Visibility: 10 miles , 16 km
Cloud details: Partly cloudy 1700 ft
Mostly cloudy 2600 ft
Mostly cloudy 3500 ft
Mostly cloudy 20000 ft
2021/01/17 17:56 KNUW 171756Z 00000KT 10SM SCT017 BKN026 BKN035 BKN200 09/06 A3048 RMK AO2 SLP321 T00890061 10094 20078 53023 $
 
KBVS - Burlington/Mt V, Washington, USA
Distance from station: NNW 51mi, 83km
Updated: 01/17/2021 9:55am
Overcast
Overcast
 Wind from calm
Wind: Calm
Temperature: 45°F , 7°C
Dew Point: 43°F , 6°C
Humidity: 93%
Barometer: 30.45 inHg , 1031.2 hPa
Clouds: Overcast
Visibility: 10 miles , 16 km
Cloud details: Mostly cloudy 1200 ft
Overcast 1700 ft
2021/01/17 17:55 KBVS 171755Z AUTO 00000KT 10SM BKN012 OVC017 07/06 A3045 RMK A01
KSHN - Shelton, Washington, USA
Distance from station: SW 63mi, 101km
Updated: 01/17/2021 10:02am
Overcast
Overcast
 Wind from W
Wind: W 6 mph , 9 km/h
Temperature: 45°F , 7°C
Wind Chill: 42°F , 6°C
Dew Point: 45°F , 7°C
Humidity: 100%
Barometer: 30.42 inHg , 1030.1 hPa
Clouds: Overcast
Visibility: 10 miles , 16 km
Cloud details: Overcast 500 ft
2021/01/17 18:02 KSHN 171802Z AUTO 27005KT 10SM OVC005 07/07 A3042 RMK AO2 CIG 004V009 T00720067
KOLM - Olympia, Washington, USA
Distance from station: SW 68mi, 110km
Updated: 01/17/2021 9:54am
Partly cloudy
Partly cloudy
 Wind from SSW
Wind: SSW 8 mph , 13 km/h
Temperature: 46°F , 8°C
Wind Chill: 42°F , 6°C
Dew Point: 45°F , 7°C
Humidity: 93%
Barometer: 30.44 inHg , 1030.8 hPa
Clouds: Partly cloudy
Visibility: 10 miles , 16 km
Cloud details: Partly cloudy 400 ft
2021/01/17 17:54 KOLM 171754Z 21007KT 10SM SCT004 08/07 A3044 RMK AO2 SLP310 60001 T00830072 10083 20067 53018
 
KCLM - Port Angeles, Washington, USA
Distance from station: WNW 72mi, 115km
Updated: 01/17/2021 9:53am
Few Clouds
Few Clouds
 Wind from WSW
Wind: WSW 9 mph , 15 km/h
Temperature: 48°F , 9°C
Wind Chill: 44°F , 7°C
Dew Point: 43°F , 6°C
Humidity: 82%
Barometer: 30.44 inHg , 1030.8 hPa
Clouds: Few Clouds
Visibility: 10 miles , 16 km
Cloud details: Few Clouds 4600 ft
2021/01/17 17:53 KCLM 171753Z AUTO 25008KT 10SM FEW046 09/06 A3044 RMK AO2 SLP311 60001 T00890056 10089 20039 53024
CWYJ - Victoria Univ, British Columbia, Canada
Distance from station: NW 75mi, 121km
Updated: 01/17/2021 10:00am

 Wind from SW
Wind: SW 3 mph , 6 km/h
Temperature: 46°F , 8°C
Dew Point: 46°F , 8°C
Humidity: 100%
2021/01/17 18:00 CWYJ 171800Z AUTO 23003KT 08/08 RMK AO1 3022 SLP307 T00750078 50002
KBLI - Bellingham, Washington, USA
Distance from station: NNW 75mi, 121km
Updated: 01/17/2021 9:53am
Mostly cloudy
Mostly cloudy
 Wind from S
Wind: S 10 mph , 17 km/h
Temperature: 48°F , 9°C
Wind Chill: 44°F , 7°C
Dew Point: 45°F , 7°C
Humidity: 87%
Barometer: 30.43 inHg , 1030.5 hPa
Clouds: Mostly cloudy
Visibility: 10 miles , 16 km
Cloud details: Few Clouds 1700 ft
Partly cloudy 2200 ft
Mostly cloudy 3000 ft
2021/01/17 17:53 KBLI 171753Z 18009KT 10SM FEW017 SCT022 BKN030 09/07 A3043 RMK AO2 SLP311 60000 T00890067 10089 20067 53026